Time;durP1;ratioP1;P1;durP2;ratioP2;P2;SDS_P1;SDS_P2;PMS_P1;PMS_P2;Temp;Humidity;BMP_temperature;BMP_pressure;BME280_temperature;BME280_humidity;BME280_pressure;Samples;Min_cycle;Max_cycle;Signal;HPM_P1;HPM_P2
2023/08/23 00:00:46;;;;;;;20.13;16.88;;;;;;;;;;2582254;23;19999;-94
2023/08/23 00:01:46;;;;;;;23.25;17.85;;;;;;;;;;2582251;23;20041;-95
2023/08/23 00:02:47;;;;;;;21.55;17.65;;;;;;;;;;2582194;23;20024;-95
2023/08/23 00:03:47;;;;;;;23.40;17.25;;;;;;;;;;2582108;23;19996;-94
2023/08/23 00:04:49;;;;;;;22.08;17.30;;;;;;;;;;2598949;22;19998;-93
2023/08/23 00:05:50;;;;;;;22.00;17.75;;;;;;;;;;2598790;22;19995;-95
2023/08/23 00:06:50;;;;;;;24.92;18.33;;;;;;;;;;2582135;23;20508;-92
2023/08/23 00:07:51;;;;;;;24.00;18.70;;;;;;;;;;2594926;22;20006;-95
2023/08/23 00:08:51;;;;;;;24.77;18.83;;;;;;;;;;2594210;22;20400;-95
2023/08/23 00:09:52;;;;;;;25.63;20.05;;;;;;;;;;2582021;23;19992;-94
2023/08/23 00:10:55;;;;;;;25.63;19.85;;;;;;;;;;2581963;23;20074;-94
2023/08/23 00:11:55;;;;;;;22.55;19.52;;;;;;;;;;2594792;22;20127;-93
2023/08/23 00:12:56;;;;;;;22.35;19.13;;;;;;;;;;2582349;23;19996;-94
2023/08/23 00:13:56;;;;;;;26.10;19.45;;;;;;;;;;2582312;23;19996;-93
2023/08/23 00:14:57;;;;;;;28.88;19.73;;;;;;;;;;2582553;23;20438;-92
2023/08/23 00:16:23;;;;;;;23.65;19.50;;;;;;;;;;2595344;22;20083;-94
2023/08/23 00:17:29;;;;;;;30.52;19.55;;;;;;;;;;2600042;22;20015;-93
2023/08/23 00:20:26;;;;;;;21.38;18.10;;;;;;;;;;2597846;22;20016;-94
2023/08/23 00:21:27;;;;;;;20.60;17.30;;;;;;;;;;2597230;22;20004;-94
2023/08/23 00:22:28;;;;;;;20.40;16.77;;;;;;;;;;2598115;22;20081;-93
2023/08/23 00:23:28;;;;;;;21.25;16.75;;;;;;;;;;2568956;23;20096;-92
2023/08/23 00:24:29;;;;;;;18.17;15.07;;;;;;;;;;2580899;23;20019;-94
2023/08/23 00:25:29;;;;;;;18.00;14.88;;;;;;;;;;2592323;23;19996;-95
2023/08/23 00:26:30;;;;;;;18.85;15.35;;;;;;;;;;2583803;23;20027;-94
2023/08/23 00:27:31;;;;;;;16.80;15.07;;;;;;;;;;2570077;23;20009;-95
2023/08/23 00:28:32;;;;;;;18.23;14.40;;;;;;;;;;2582696;23;20027;-94
2023/08/23 00:29:32;;;;;;;16.73;13.90;;;;;;;;;;2583453;23;20004;-95
2023/08/23 00:30:33;;;;;;;15.80;13.93;;;;;;;;;;2582465;23;20485;-94
2023/08/23 00:31:33;;;;;;;17.95;14.02;;;;;;;;;;2569467;23;20017;-94
2023/08/23 00:32:34;;;;;;;15.10;13.50;;;;;;;;;;2580774;23;20060;-94
2023/08/23 00:33:34;;;;;;;15.80;13.05;;;;;;;;;;2582320;22;20090;-95
2023/08/23 00:34:35;;;;;;;15.05;12.30;;;;;;;;;;2582484;22;20441;-94
2023/08/23 00:35:35;;;;;;;13.70;11.70;;;;;;;;;;2588641;23;20016;-93
2023/08/23 00:36:36;;;;;;;16.27;12.50;;;;;;;;;;2580759;23;20027;-94
2023/08/23 00:37:36;;;;;;;15.80;12.60;;;;;;;;;;2583261;23;20433;-95
2023/08/23 00:38:36;;;;;;;15.13;12.43;;;;;;;;;;2582246;23;20099;-95
2023/08/23 00:39:37;;;;;;;14.95;13.00;;;;;;;;;;2582248;23;20020;-94
2023/08/23 00:40:37;;;;;;;13.32;11.45;;;;;;;;;;2582245;22;20441;-95
2023/08/23 00:41:38;;;;;;;15.07;11.65;;;;;;;;;;2581293;23;20084;-95
2023/08/23 00:42:38;;;;;;;15.00;12.70;;;;;;;;;;2569714;23;20004;-94
2023/08/23 00:43:38;;;;;;;14.18;11.25;;;;;;;;;;2569598;23;20063;-94
2023/08/23 00:44:39;;;;;;;12.43;11.23;;;;;;;;;;2569710;23;20466;-94
2023/08/23 00:45:41;;;;;;;13.60;11.15;;;;;;;;;;2582177;23;20044;-94
2023/08/23 00:46:41;;;;;;;14.70;11.63;;;;;;;;;;2569832;23;20101;-93
2023/08/23 00:47:42;;;;;;;13.20;11.63;;;;;;;;;;2569743;23;20358;-95
2023/08/23 00:48:44;;;;;;;12.20;10.90;;;;;;;;;;2569601;23;20009;-94
2023/08/23 00:49:46;;;;;;;14.45;11.38;;;;;;;;;;2570057;23;20059;-94
2023/08/23 00:50:47;;;;;;;14.00;11.32;;;;;;;;;;2582168;22;20019;-94
2023/08/23 00:51:49;;;;;;;12.63;11.38;;;;;;;;;;2582045;23;20007;-93
2023/08/23 00:52:50;;;;;;;16.70;11.40;;;;;;;;;;2570012;23;19993;-95
2023/08/23 00:53:50;;;;;;;15.32;10.85;;;;;;;;;;2582058;23;20072;-96
2023/08/23 00:54:51;;;;;;;14.73;11.88;;;;;;;;;;2582048;23;20015;-93
2023/08/23 00:55:52;;;;;;;14.43;11.43;;;;;;;;;;2569508;23;20016;-96
2023/08/23 00:56:55;;;;;;;12.88;11.45;;;;;;;;;;2569412;23;20545;-95
2023/08/23 00:57:56;;;;;;;14.20;11.88;;;;;;;;;;2582040;23;20000;-96
2023/08/23 00:58:58;;;;;;;14.00;11.10;;;;;;;;;;2569379;23;20039;-96
2023/08/23 01:00:00;;;;;;;13.27;11.45;;;;;;;;;;2569991;23;20007;-95
2023/08/23 01:01:01;;;;;;;14.15;11.13;;;;;;;;;;2582916;22;20000;-94
2023/08/23 01:02:01;;;;;;;15.15;11.48;;;;;;;;;;2582903;23;20322;-94
2023/08/23 01:03:02;;;;;;;14.48;11.18;;;;;;;;;;2570116;23;20446;-95
2023/08/23 01:04:03;;;;;;;13.02;10.90;;;;;;;;;;2582848;23;20022;-95
2023/08/23 01:05:04;;;;;;;13.38;11.40;;;;;;;;;;2582975;22;20016;-95
2023/08/23 01:06:25;;;;;;;13.05;11.75;;;;;;;;;;2582774;23;20088;-95
2023/08/23 01:07:49;;;;;;;13.02;11.50;;;;;;;;;;2582823;23;20047;-95
2023/08/23 01:09:01;;;;;;;14.85;11.38;;;;;;;;;;2582685;23;20015;-94
2023/08/23 01:10:12;;;;;;;13.10;11.63;;;;;;;;;;2572839;23;20014;-95
2023/08/23 01:11:24;;;;;;;19.90;11.93;;;;;;;;;;2572433;23;20011;-95
2023/08/23 01:12:40;;;;;;;14.35;11.55;;;;;;;;;;2572668;23;20009;-96
2023/08/23 01:13:49;;;;;;;13.90;11.02;;;;;;;;;;2573604;23;20063;-95
2023/08/23 01:15:05;;;;;;;14.05;10.70;;;;;;;;;;2571924;23;20001;-95
2023/08/23 01:16:09;;;;;;;13.93;10.60;;;;;;;;;;2575905;23;20019;-95
2023/08/23 01:17:12;;;;;;;14.13;10.88;;;;;;;;;;2570345;23;20015;-94
2023/08/23 01:18:14;;;;;;;13.30;11.02;;;;;;;;;;2570483;23;20016;-95
2023/08/23 01:19:49;;;;;;;15.27;11.30;;;;;;;;;;2584803;23;20000;-94
2023/08/23 01:20:52;;;;;;;14.40;11.23;;;;;;;;;;2582042;23;20075;-96
2023/08/23 01:21:56;;;;;;;15.23;10.93;;;;;;;;;;2590515;22;20053;-95
2023/08/23 01:23:13;;;;;;;11.43;10.32;;;;;;;;;;2606461;22;19999;-96
2023/08/23 01:24:13;;;;;;;13.85;10.73;;;;;;;;;;2582904;23;20028;-95
2023/08/23 01:25:14;;;;;;;12.98;10.75;;;;;;;;;;2570537;23;20083;-95
2023/08/23 01:26:14;;;;;;;13.80;10.85;;;;;;;;;;2570385;23;20122;-94
2023/08/23 01:27:16;;;;;;;12.32;11.05;;;;;;;;;;2583044;23;20004;-95
2023/08/23 01:28:18;;;;;;;13.32;11.10;;;;;;;;;;2585277;23;20004;-94
2023/08/23 01:29:18;;;;;;;11.73;10.13;;;;;;;;;;2582984;22;20012;-95
2023/08/23 01:30:19;;;;;;;12.80;10.07;;;;;;;;;;2595603;22;20011;-96
2023/08/23 01:31:22;;;;;;;11.90;10.63;;;;;;;;;;2142035;22;10306761;-94
2023/08/23 01:32:28;;;;;;;12.20;11.00;;;;;;;;;;2590898;22;20004;-95
2023/08/23 01:33:37;;;;;;;11.48;10.25;;;;;;;;;;2571424;23;20088;-95
2023/08/23 01:34:44;;;;;;;12.77;10.32;;;;;;;;;;2570274;23;20000;-95
2023/08/23 01:36:04;;;;;;;12.55;11.25;;;;;;;;;;2582555;23;20085;-96
2023/08/23 01:37:07;;;;;;;13.95;11.27;;;;;;;;;;2582569;23;20020;-95
2023/08/23 01:38:09;;;;;;;12.32;10.48;;;;;;;;;;2570883;23;20512;-96
2023/08/23 01:39:10;;;;;;;14.70;10.32;;;;;;;;;;2570299;23;20019;-95
2023/08/23 01:40:12;;;;;;;14.65;10.18;;;;;;;;;;2585010;23;19996;-95
2023/08/23 01:41:13;;;;;;;11.68;10.10;;;;;;;;;;2595505;22;20029;-96
2023/08/23 01:42:14;;;;;;;12.23;10.45;;;;;;;;;;2595203;22;20000;-95
2023/08/23 01:43:14;;;;;;;13.32;10.38;;;;;;;;;;2570167;23;20398;-94
2023/08/23 01:44:15;;;;;;;12.35;10.05;;;;;;;;;;2575986;23;20102;-94
2023/08/23 01:45:15;;;;;;;12.23;10.90;;;;;;;;;;2564634;23;20186;-95
2023/08/23 01:46:16;;;;;;;11.77;10.57;;;;;;;;;;2582656;23;20004;-95
2023/08/23 01:47:17;;;;;;;14.15;10.35;;;;;;;;;;2582962;23;20397;-94
2023/08/23 01:48:18;;;;;;;13.13;10.43;;;;;;;;;;2571449;23;20430;-95
2023/08/23 01:49:18;;;;;;;17.17;10.20;;;;;;;;;;2582780;23;20147;-95
2023/08/23 01:50:19;;;;;;;12.30;10.57;;;;;;;;;;2575125;22;20023;-95
2023/08/23 01:51:19;;;;;;;13.07;10.27;;;;;;;;;;2580428;22;20055;-95
2023/08/23 01:52:20;;;;;;;12.32;11.05;;;;;;;;;;2580147;22;20015;-93
2023/08/23 01:53:20;;;;;;;11.82;10.05;;;;;;;;;;2596595;22;20008;-95
2023/08/23 01:54:20;;;;;;;13.43;10.90;;;;;;;;;;2598569;22;20011;-94
2023/08/23 01:55:21;;;;;;;16.35;10.90;;;;;;;;;;2585372;23;20012;-95
2023/08/23 01:56:21;;;;;;;13.23;11.45;;;;;;;;;;2570990;23;20481;-95
2023/08/23 01:57:22;;;;;;;16.52;11.52;;;;;;;;;;2583704;23;20438;-95
2023/08/23 01:58:25;;;;;;;11.95;10.57;;;;;;;;;;2583656;22;20473;-95
2023/08/23 01:59:25;;;;;;;13.85;10.60;;;;;;;;;;2583857;23;20069;-95
2023/08/23 02:00:26;;;;;;;14.25;10.60;;;;;;;;;;2583577;23;20004;-95
2023/08/23 02:01:26;;;;;;;15.55;11.18;;;;;;;;;;2570737;23;20067;-95
2023/08/23 02:02:27;;;;;;;13.75;10.77;;;;;;;;;;2570363;23;20008;-94
2023/08/23 02:03:27;;;;;;;15.45;11.95;;;;;;;;;;2583822;23;20422;-95
2023/08/23 02:04:28;;;;;;;16.27;11.23;;;;;;;;;;2592210;22;20087;-96
2023/08/23 02:05:31;;;;;;;15.50;10.38;;;;;;;;;;2582593;23;20027;-95
2023/08/23 02:06:31;;;;;;;11.73;10.52;;;;;;;;;;2571048;23;20092;-95
2023/08/23 02:07:33;;;;;;;13.05;11.73;;;;;;;;;;2580144;23;20310;-95
2023/08/23 02:08:35;;;;;;;13.77;11.35;;;;;;;;;;2607226;22;20010;-95
2023/08/23 02:09:36;;;;;;;11.48;10.27;;;;;;;;;;2606922;22;20002;-95
2023/08/23 02:10:37;;;;;;;13.90;10.88;;;;;;;;;;2594079;22;20057;-95
2023/08/23 02:11:37;;;;;;;11.93;10.70;;;;;;;;;;2594298;22;20034;-95
2023/08/23 02:12:40;;;;;;;17.95;12.38;;;;;;;;;;2594564;22;20004;-94
2023/08/23 02:13:40;;;;;;;12.90;10.70;;;;;;;;;;2577045;23;20072;-95
2023/08/23 02:14:40;;;;;;;13.65;11.07;;;;;;;;;;2570535;23;20007;-95
2023/08/23 02:15:41;;;;;;;12.80;10.65;;;;;;;;;;2571154;23;20531;-95
2023/08/23 02:17:52;;;;;;;14.03;10.83;;;;;;;;;;2577139;22;20020;-95
2023/08/23 02:18:52;;;;;;;12.98;10.73;;;;;;;;;;2608225;22;20253;-94
2023/08/23 02:19:53;;;;;;;13.07;10.20;;;;;;;;;;2607318;22;20382;-94
2023/08/23 02:20:57;;;;;;;13.52;10.70;;;;;;;;;;2582768;23;20004;-94
2023/08/23 02:21:57;;;;;;;13.57;10.63;;;;;;;;;;2583258;22;19996;-95
2023/08/23 02:22:57;;;;;;;14.75;11.57;;;;;;;;;;2582902;23;20001;-94
2023/08/23 02:23:58;;;;;;;13.27;11.40;;;;;;;;;;2582735;23;19996;-94
2023/08/23 02:24:58;;;;;;;13.73;10.93;;;;;;;;;;2595267;22;20049;-94
2023/08/23 02:25:58;;;;;;;13.55;10.55;;;;;;;;;;2595247;22;20078;-94
2023/08/23 02:26:59;;;;;;;14.02;10.77;;;;;;;;;;2595292;22;20034;-95
2023/08/23 02:27:59;;;;;;;16.42;11.77;;;;;;;;;;2595491;22;20050;-94
2023/08/23 02:29:00;;;;;;;12.10;10.73;;;;;;;;;;2582843;23;20007;-93
2023/08/23 02:30:00;;;;;;;12.30;10.82;;;;;;;;;;2582857;23;20426;-94
2023/08/23 02:31:03;;;;;;;12.95;11.35;;;;;;;;;;2582843;23;20086;-93
2023/08/23 02:32:04;;;;;;;11.30;9.80;;;;;;;;;;2583089;22;20020;-94
2023/08/23 02:33:04;;;;;;;15.20;10.68;;;;;;;;;;2595263;22;20030;-94
2023/08/23 02:34:05;;;;;;;12.57;11.25;;;;;;;;;;2582834;23;20004;-94
2023/08/23 02:35:06;;;;;;;11.82;10.18;;;;;;;;;;2582198;23;20005;-96
2023/08/23 02:36:06;;;;;;;14.00;10.95;;;;;;;;;;2582518;23;20393;-94
2023/08/23 02:37:06;;;;;;;14.40;11.05;;;;;;;;;;2582620;23;20003;-94
2023/08/23 02:38:08;;;;;;;11.77;10.32;;;;;;;;;;2582700;23;20008;-93
2023/08/23 02:39:09;;;;;;;13.73;11.25;;;;;;;;;;2582923;22;20003;-94
2023/08/23 02:40:09;;;;;;;14.05;10.45;;;;;;;;;;2582656;23;20012;-94
2023/08/23 02:41:10;;;;;;;12.93;11.43;;;;;;;;;;2595300;22;20023;-94
2023/08/23 02:42:11;;;;;;;12.32;11.02;;;;;;;;;;2608536;22;20022;-94
2023/08/23 02:43:11;;;;;;;13.40;11.98;;;;;;;;;;2608347;22;20476;-95
2023/08/23 02:44:11;;;;;;;15.45;10.73;;;;;;;;;;2595622;22;20011;-93
2023/08/23 02:45:12;;;;;;;12.13;10.75;;;;;;;;;;2595506;22;19995;-94
2023/08/23 02:46:12;;;;;;;16.08;11.50;;;;;;;;;;2595484;22;20356;-94
2023/08/23 02:47:13;;;;;;;17.27;11.80;;;;;;;;;;2582721;23;20011;-94
2023/08/23 02:48:14;;;;;;;15.00;11.32;;;;;;;;;;2589127;22;20034;-94
2023/08/23 02:49:14;;;;;;;16.55;12.10;;;;;;;;;;2593378;22;20082;-94
2023/08/23 02:50:14;;;;;;;11.77;10.57;;;;;;;;;;2606511;22;20074;-94
2023/08/23 02:51:15;;;;;;;15.18;11.45;;;;;;;;;;2606786;22;19999;-94
2023/08/23 02:52:15;;;;;;;17.70;11.82;;;;;;;;;;2598146;22;20011;-94
2023/08/23 02:53:16;;;;;;;15.15;11.13;;;;;;;;;;2597672;22;20027;-95
2023/08/23 02:54:16;;;;;;;13.32;11.63;;;;;;;;;;2610584;22;20030;-94
2023/08/23 02:55:16;;;;;;;12.40;10.80;;;;;;;;;;2616124;22;20015;-94
2023/08/23 02:56:17;;;;;;;17.45;11.23;;;;;;;;;;2603323;22;20035;-95
2023/08/23 02:57:17;;;;;;;14.65;11.48;;;;;;;;;;2582758;23;20055;-95
2023/08/23 02:58:18;;;;;;;18.23;12.05;;;;;;;;;;2596702;22;20004;-94
2023/08/23 02:59:18;;;;;;;12.93;11.38;;;;;;;;;;2595040;22;20004;-95
2023/08/23 03:00:18;;;;;;;12.55;10.55;;;;;;;;;;2582367;23;20015;-95
2023/08/23 03:01:19;;;;;;;13.07;11.27;;;;;;;;;;2582052;23;20457;-95
2023/08/23 03:02:19;;;;;;;15.70;11.40;;;;;;;;;;2582348;23;20065;-94
2023/08/23 03:03:26;;;;;;;15.27;11.63;;;;;;;;;;2598706;22;20042;-95
2023/08/23 03:04:26;;;;;;;14.00;11.38;;;;;;;;;;2565656;23;20384;-95
2023/08/23 03:05:27;;;;;;;12.90;11.27;;;;;;;;;;2557512;23;20009;-95
2023/08/23 03:06:28;;;;;;;14.30;11.95;;;;;;;;;;2557968;23;20013;-95
2023/08/23 03:07:29;;;;;;;13.68;11.82;;;;;;;;;;2558845;23;20001;-95
2023/08/23 03:08:29;;;;;;;14.18;11.38;;;;;;;;;;2567380;23;20102;-95
2023/08/23 03:09:29;;;;;;;12.88;10.88;;;;;;;;;;2569937;23;20005;-95
2023/08/23 03:10:30;;;;;;;15.13;11.32;;;;;;;;;;2557710;23;20115;-95
2023/08/23 03:11:30;;;;;;;17.77;11.98;;;;;;;;;;2556919;23;20005;-95
2023/08/23 03:12:31;;;;;;;15.23;12.48;;;;;;;;;;2554852;23;20039;-95
2023/08/23 03:13:32;;;;;;;15.43;11.13;;;;;;;;;;2555902;23;20009;-94
2023/08/23 03:14:32;;;;;;;16.10;11.32;;;;;;;;;;2570116;23;20009;-95
2023/08/23 03:15:32;;;;;;;15.48;10.90;;;;;;;;;;2569757;23;20423;-95
2023/08/23 03:16:33;;;;;;;14.50;11.23;;;;;;;;;;2569638;23;20066;-95
2023/08/23 03:17:33;;;;;;;13.05;11.32;;;;;;;;;;2569788;23;20216;-95
2023/08/23 03:18:34;;;;;;;13.60;11.23;;;;;;;;;;2557252;23;20012;-95
2023/08/23 03:19:36;;;;;;;12.05;10.80;;;;;;;;;;2557468;23;20361;-96
2023/08/23 03:20:37;;;;;;;13.45;12.00;;;;;;;;;;2559085;23;20080;-96
2023/08/23 03:21:37;;;;;;;13.27;10.70;;;;;;;;;;2558800;23;20436;-95
2023/08/23 03:22:37;;;;;;;15.48;12.48;;;;;;;;;;2569790;23;20042;-95
2023/08/23 03:25:34;;;;;;;14.93;10.25;;;;;;;;;;2585248;22;20020;-95
2023/08/23 03:26:47;;;;;;;14.45;11.20;;;;;;;;;;2570329;23;20378;-96
2023/08/23 03:29:17;;;;;;;12.48;11.18;;;;;;;;;;2563352;22;20028;-95
2023/08/23 03:30:18;;;;;;;15.48;11.65;;;;;;;;;;2584939;23;20038;-93
2023/08/23 03:31:19;;;;;;;15.90;11.43;;;;;;;;;;2569675;23;20434;-95
2023/08/23 03:32:19;;;;;;;13.40;11.50;;;;;;;;;;2571312;23;20164;-94
2023/08/23 03:33:20;;;;;;;17.48;11.48;;;;;;;;;;2569531;23;20384;-94
2023/08/23 03:34:20;;;;;;;14.05;10.90;;;;;;;;;;2571530;23;20074;-93
2023/08/23 03:35:20;;;;;;;15.48;11.25;;;;;;;;;;2569690;23;20090;-93
2023/08/23 03:36:21;;;;;;;;;;;;;;;;;;2141684;23;10001565;-93
2023/08/23 03:37:22;;;;;;;15.73;11.50;;;;;;;;;;2557501;23;19912;-94
2023/08/23 03:38:22;;;;;;;14.20;11.50;;;;;;;;;;2569936;23;20054;-94
2023/08/23 03:39:23;;;;;;;15.38;11.60;;;;;;;;;;2557514;23;20045;-94
2023/08/23 03:40:23;;;;;;;17.02;11.77;;;;;;;;;;2556938;23;20005;-95
2023/08/23 03:41:24;;;;;;;14.23;10.98;;;;;;;;;;2580610;23;20020;-95
2023/08/23 03:42:24;;;;;;;14.20;11.55;;;;;;;;;;2580562;23;20013;-95
2023/08/23 03:43:24;;;;;;;12.80;11.18;;;;;;;;;;2557668;23;20005;-94
2023/08/23 03:44:25;;;;;;;17.35;12.00;;;;;;;;;;2557592;23;20005;-95
2023/08/23 03:45:25;;;;;;;15.15;11.68;;;;;;;;;;2557035;23;20044;-94
2023/08/23 03:46:26;;;;;;;16.45;11.65;;;;;;;;;;2557831;23;20020;-93
2023/08/23 03:47:27;;;;;;;17.92;12.48;;;;;;;;;;2557971;23;20072;-94
2023/08/23 03:49:26;;;;;;;15.25;12.40;;;;;;;;;;2570870;23;20576;-94
2023/08/23 03:51:43;;;;;;;15.00;11.85;;;;;;;;;;2593580;22;19999;-91
2023/08/23 03:52:43;;;;;;;16.65;12.45;;;;;;;;;;2580933;23;20010;-89
2023/08/23 03:53:44;;;;;;;13.65;11.07;;;;;;;;;;2585273;23;20002;-88
2023/08/23 03:54:44;;;;;;;20.17;11.98;;;;;;;;;;2580498;23;20000;-89
2023/08/23 03:55:51;;;;;;;18.00;12.35;;;;;;;;;;2567917;23;20415;-90
2023/08/23 03:56:51;;;;;;;14.70;12.48;;;;;;;;;;2569336;23;20037;-91
2023/08/23 03:57:52;;;;;;;14.27;11.77;;;;;;;;;;2568218;23;20005;-90
2023/08/23 03:58:53;;;;;;;19.52;12.05;;;;;;;;;;2584447;23;20003;-91
2023/08/23 03:59:54;;;;;;;16.27;12.80;;;;;;;;;;2580638;23;19996;-90
2023/08/23 04:00:54;;;;;;;13.88;11.23;;;;;;;;;;2579700;23;20016;-90
2023/08/23 04:01:55;;;;;;;14.70;12.25;;;;;;;;;;2597876;22;19995;-91
2023/08/23 04:02:55;;;;;;;17.65;12.48;;;;;;;;;;2593643;22;20444;-90
2023/08/23 04:03:55;;;;;;;14.98;11.55;;;;;;;;;;2596521;22;20016;-90
2023/08/23 04:04:56;;;;;;;14.35;12.25;;;;;;;;;;2597497;22;20000;-90
2023/08/23 04:05:56;;;;;;;16.02;11.93;;;;;;;;;;2597537;22;19984;-89
2023/08/23 04:06:57;;;;;;;17.75;12.80;;;;;;;;;;2597227;22;20003;-90
2023/08/23 04:07:57;;;;;;;14.55;13.05;;;;;;;;;;2580400;23;20023;-90
2023/08/23 04:08:58;;;;;;;15.50;11.70;;;;;;;;;;2580464;23;20000;-90
2023/08/23 04:09:58;;;;;;;14.30;12.35;;;;;;;;;;2567945;23;20059;-90
2023/08/23 04:10:58;;;;;;;15.48;11.95;;;;;;;;;;2567878;23;20051;-90
2023/08/23 04:11:59;;;;;;;13.70;11.63;;;;;;;;;;2580503;23;20079;-90
2023/08/23 04:12:59;;;;;;;14.52;12.20;;;;;;;;;;2580397;23;20036;-89
2023/08/23 04:14:00;;;;;;;16.55;13.13;;;;;;;;;;2583897;23;19999;-89
2023/08/23 04:15:00;;;;;;;15.95;12.32;;;;;;;;;;2580042;23;20392;-90
2023/08/23 04:16:00;;;;;;;15.80;12.57;;;;;;;;;;2567794;23;20021;-90
2023/08/23 04:17:02;;;;;;;17.05;12.10;;;;;;;;;;2583734;23;20337;-89
2023/08/23 04:18:02;;;;;;;17.42;12.50;;;;;;;;;;2580533;23;20004;-90
2023/08/23 04:19:03;;;;;;;16.88;12.68;;;;;;;;;;2583636;23;20012;-90
2023/08/23 04:20:04;;;;;;;18.02;13.55;;;;;;;;;;2596476;22;20453;-90
2023/08/23 04:21:05;;;;;;;19.58;12.75;;;;;;;;;;2596876;22;20000;-90
2023/08/23 04:22:05;;;;;;;20.05;13.00;;;;;;;;;;2580520;23;20006;-90
2023/08/23 04:23:06;;;;;;;18.75;13.15;;;;;;;;;;2567718;23;20051;-89
2023/08/23 04:24:06;;;;;;;19.65;12.88;;;;;;;;;;2567858;23;20021;-90
2023/08/23 04:25:07;;;;;;;19.85;13.30;;;;;;;;;;2582883;23;20020;-89
2023/08/23 04:26:08;;;;;;;19.77;13.18;;;;;;;;;;2596429;22;20378;-90
2023/08/23 04:27:08;;;;;;;20.58;14.32;;;;;;;;;;2580991;23;20008;-90
2023/08/23 04:28:08;;;;;;;20.15;12.73;;;;;;;;;;2576714;23;20009;-87
2023/08/23 04:29:09;;;;;;;17.83;11.80;;;;;;;;;;2576256;23;20036;-90
2023/08/23 04:30:10;;;;;;;18.30;13.00;;;;;;;;;;2583754;23;20024;-89
2023/08/23 04:31:10;;;;;;;14.57;12.02;;;;;;;;;;2596120;22;20508;-90
2023/08/23 04:32:12;;;;;;;26.23;13.30;;;;;;;;;;2594276;22;20015;-90
2023/08/23 04:33:13;;;;;;;16.55;12.30;;;;;;;;;;2596171;22;20000;-89
2023/08/23 04:34:13;;;;;;;17.02;12.85;;;;;;;;;;2596417;22;20003;-89
2023/08/23 04:35:13;;;;;;;18.83;12.30;;;;;;;;;;2581151;23;20036;-90
2023/08/23 04:36:14;;;;;;;17.42;12.13;;;;;;;;;;2569659;23;20476;-90
2023/08/23 04:37:14;;;;;;;16.40;12.30;;;;;;;;;;2581364;23;20043;-90
2023/08/23 04:38:15;;;;;;;13.70;12.30;;;;;;;;;;2569090;23;20377;-90
2023/08/23 04:39:15;;;;;;;15.90;11.98;;;;;;;;;;2569242;23;20536;-90
2023/08/23 04:40:16;;;;;;;17.42;12.40;;;;;;;;;;2581037;23;20281;-90
2023/08/23 04:41:16;;;;;;;14.75;11.70;;;;;;;;;;2583476;23;20016;-89
2023/08/23 04:42:16;;;;;;;18.20;12.27;;;;;;;;;;2596699;22;19995;-89
2023/08/23 04:43:17;;;;;;;16.88;12.73;;;;;;;;;;2581380;23;20015;-89
2023/08/23 04:44:17;;;;;;;15.90;11.13;;;;;;;;;;2569238;23;20005;-90
2023/08/23 04:45:18;;;;;;;13.57;11.23;;;;;;;;;;2583348;23;20000;-90
2023/08/23 04:46:18;;;;;;;18.85;12.10;;;;;;;;;;2581626;23;20000;-90
2023/08/23 04:47:19;;;;;;;19.17;12.60;;;;;;;;;;2569061;23;20092;-90
2023/08/23 04:48:19;;;;;;;17.55;12.07;;;;;;;;;;2583176;23;20007;-90
2023/08/23 04:49:20;;;;;;;16.85;12.13;;;;;;;;;;2595694;22;20011;-89
2023/08/23 04:50:33;;;;;;;17.13;11.48;;;;;;;;;;2596414;22;19996;-90
2023/08/23 04:51:33;;;;;;;15.25;11.13;;;;;;;;;;2595181;22;20094;-90
2023/08/23 04:52:34;;;;;;;13.77;10.80;;;;;;;;;;2595537;22;20008;-89
2023/08/23 04:53:35;;;;;;;15.55;11.93;;;;;;;;;;2595840;22;20066;-90
2023/08/23 04:54:36;;;;;;;14.98;10.32;;;;;;;;;;2596106;22;20004;-90
2023/08/23 04:55:37;;;;;;;13.35;10.30;;;;;;;;;;2581429;23;20012;-90
2023/08/23 04:56:37;;;;;;;19.63;10.73;;;;;;;;;;2581102;23;20406;-90
2023/08/23 04:57:38;;;;;;;13.55;10.00;;;;;;;;;;2581217;23;20011;-90
2023/08/23 04:58:38;;;;;;;13.63;10.55;;;;;;;;;;2568334;23;20013;-91
2023/08/23 04:59:39;;;;;;;10.68;9.55;;;;;;;;;;2581443;23;20031;-90
2023/08/23 05:00:39;;;;;;;15.80;10.65;;;;;;;;;;2581175;23;20073;-90
2023/08/23 05:01:43;;;;;;;14.75;10.43;;;;;;;;;;2581384;23;20000;-90
2023/08/23 05:02:44;;;;;;;11.75;9.52;;;;;;;;;;2580640;23;20087;-90
2023/08/23 05:03:44;;;;;;;10.32;9.02;;;;;;;;;;2585810;23;19996;-90
2023/08/23 05:04:45;;;;;;;12.52;9.73;;;;;;;;;;2581515;23;19996;-91
2023/08/23 05:05:46;;;;;;;10.55;9.32;;;;;;;;;;2585663;22;19992;-89
2023/08/23 05:06:47;;;;;;;11.60;9.10;;;;;;;;;;2581234;23;20011;-89
2023/08/23 05:07:49;;;;;;;12.95;9.20;;;;;;;;;;2585356;23;20031;-89
2023/08/23 05:08:49;;;;;;;11.05;9.68;;;;;;;;;;2598670;22;20322;-91
2023/08/23 05:09:50;;;;;;;12.52;9.50;;;;;;;;;;2597640;22;20051;-90
2023/08/23 05:10:52;;;;;;;12.40;9.95;;;;;;;;;;2581518;22;20334;-90
2023/08/23 05:11:52;;;;;;;13.88;9.23;;;;;;;;;;2584895;22;19992;-90
2023/08/23 05:12:55;;;;;;;10.82;9.30;;;;;;;;;;2594133;22;19999;-90
2023/08/23 05:13:56;;;;;;;13.32;9.30;;;;;;;;;;2600494;22;20022;-91
2023/08/23 05:14:56;;;;;;;12.25;9.63;;;;;;;;;;2606467;22;19987;-88
2023/08/23 05:15:57;;;;;;;11.40;8.65;;;;;;;;;;2602933;22;20118;-91
2023/08/23 05:16:58;;;;;;;10.30;9.18;;;;;;;;;;2608569;22;19999;-91
2023/08/23 05:18:05;;;;;;;11.05;8.90;;;;;;;;;;2593320;22;19992;-91
2023/08/23 05:19:05;;;;;;;11.20;8.25;;;;;;;;;;2596074;22;20011;-91
2023/08/23 05:20:18;;;;;;;9.30;8.40;;;;;;;;;;2598275;22;20008;-90
2023/08/23 05:21:21;;;;;;;13.13;9.02;;;;;;;;;;2594148;22;20003;-91
2023/08/23 05:22:22;;;;;;;11.85;8.73;;;;;;;;;;2581621;23;20414;-91
2023/08/23 05:23:22;;;;;;;11.43;8.68;;;;;;;;;;2582939;23;20000;-91
2023/08/23 05:24:23;;;;;;;13.55;9.43;;;;;;;;;;2580833;23;20028;-91
2023/08/23 05:27:49;;;;;;;9.13;7.97;;;;;;;;;;2593834;22;20004;-90
2023/08/23 05:28:52;;;;;;;9.55;8.40;;;;;;;;;;2586365;22;20102;-91
2023/08/23 05:29:53;;;;;;;12.65;8.63;;;;;;;;;;2597645;22;20368;-90
2023/08/23 05:30:56;;;;;;;12.95;8.30;;;;;;;;;;2598530;22;19992;-91
2023/08/23 05:31:56;;;;;;;9.30;8.35;;;;;;;;;;2598205;22;19999;-90
2023/08/23 05:33:39;;;;;;;9.98;8.95;;;;;;;;;;2598520;22;19992;-91
2023/08/23 05:34:40;;;;;;;13.13;8.55;;;;;;;;;;2590550;22;20007;-90
2023/08/23 05:35:42;;;;;;;11.07;8.80;;;;;;;;;;2595128;22;20426;-90
2023/08/23 05:36:42;;;;;;;13.45;8.85;;;;;;;;;;2595151;22;20007;-91
2023/08/23 05:37:43;;;;;;;12.10;9.07;;;;;;;;;;2594564;22;20008;-90
2023/08/23 05:38:43;;;;;;;12.50;9.20;;;;;;;;;;2581790;23;20484;-92
2023/08/23 05:39:43;;;;;;;9.98;8.50;;;;;;;;;;2585986;23;19996;-91
2023/08/23 05:40:45;;;;;;;12.52;9.48;;;;;;;;;;2582026;23;20422;-90
2023/08/23 05:41:46;;;;;;;13.73;9.38;;;;;;;;;;2586734;22;20007;-90
2023/08/23 05:42:46;;;;;;;12.63;9.77;;;;;;;;;;2599883;22;20027;-91
2023/08/23 05:43:46;;;;;;;11.90;9.13;;;;;;;;;;2599553;22;20209;-91
2023/08/23 05:44:48;;;;;;;11.30;8.85;;;;;;;;;;2599369;22;20421;-90
2023/08/23 05:45:50;;;;;;;11.70;9.43;;;;;;;;;;2581541;23;20006;-90
2023/08/23 05:46:51;;;;;;;9.50;8.13;;;;;;;;;;2585738;22;19995;-91
2023/08/23 05:47:51;;;;;;;11.02;8.20;;;;;;;;;;2599088;22;19988;-91
2023/08/23 05:48:52;;;;;;;8.57;7.70;;;;;;;;;;2582125;23;20417;-91
2023/08/23 05:49:52;;;;;;;10.32;8.65;;;;;;;;;;2584983;23;20015;-91
2023/08/23 05:50:53;;;;;;;14.77;8.10;;;;;;;;;;2581649;23;20055;-91
2023/08/23 05:51:54;;;;;;;9.57;8.55;;;;;;;;;;2584996;22;20329;-91
2023/08/23 05:52:54;;;;;;;8.38;7.35;;;;;;;;;;2581304;23;20000;-91
2023/08/23 05:53:54;;;;;;;9.15;8.15;;;;;;;;;;2581677;23;19992;-91
2023/08/23 05:54:55;;;;;;;10.98;8.13;;;;;;;;;;2569140;23;20473;-91
2023/08/23 05:55:55;;;;;;;12.45;8.57;;;;;;;;;;2569584;23;20005;-90
2023/08/23 05:56:59;;;;;;;9.00;7.53;;;;;;;;;;2584925;23;19996;-92
2023/08/23 05:58:02;;;;;;;9.60;7.57;;;;;;;;;;2237798;22;10256824;-89
2023/08/23 05:59:02;;;;;;;8.45;7.50;;;;;;;;;;2581676;23;20610;-90
2023/08/23 06:00:05;;;;;;;12.93;7.97;;;;;;;;;;2582739;23;20091;-91
2023/08/23 06:01:05;;;;;;;10.35;7.05;;;;;;;;;;2574472;23;20064;-91
2023/08/23 06:02:05;;;;;;;9.68;8.38;;;;;;;;;;2584927;23;20007;-90
2023/08/23 06:03:06;;;;;;;8.27;7.47;;;;;;;;;;2598142;22;20079;-91
2023/08/23 06:04:06;;;;;;;9.63;7.45;;;;;;;;;;2581435;23;20424;-91
2023/08/23 06:05:07;;;;;;;7.97;7.18;;;;;;;;;;2568968;23;20008;-91
2023/08/23 06:06:07;;;;;;;9.90;7.43;;;;;;;;;;2584228;23;19996;-91
2023/08/23 06:07:08;;;;;;;9.77;7.20;;;;;;;;;;2597736;22;20206;-92
2023/08/23 06:08:28;;;;;;;8.63;7.53;;;;;;;;;;2597529;22;20010;-91
2023/08/23 06:09:34;;;;;;;7.70;6.87;;;;;;;;;;2157611;22;10001772;-89
2023/08/23 06:10:35;;;;;;;8.05;7.25;;;;;;;;;;2595694;22;20246;-89
2023/08/23 06:11:35;;;;;;;7.53;6.90;;;;;;;;;;2581098;23;20004;-90
2023/08/23 06:12:36;;;;;;;9.00;8.20;;;;;;;;;;2568552;23;20086;-90